Airfield :
LOGIN :

Register | Disclaimer

   EN    FR    IT 

 










Legend :    VFR   Marginal VFR   IFR   Intensive IFR   Very Intensive IFR
Visi :
Ceiling :
>= 8 km
>= 3000ft
5 to 8 km
1000 to 3000 ft
1500m to 5 km
500 to 1000 ft
800 to 1500m
200 to 500 ft
< 800m
< 200 ft
Symbols :   Thunderstorms  Fog  Heavy snow  Heavy precipitations  Wind > 20 kt
SIGMETs :     Misc.  Thunderstorms  Icing  Turbulence  Mountain Waves  Volcanic Ashes






- Airport Elevation : 1247 ft
- IATA code : PRG


LKPR - Praha Ruzyne

CURRENT METAR :
  • 031930Z 36007KT 9999 FEW028 BKN038 16/14 Q1010 NOSIG

EXPIRED METARs :
  • 031900Z 01007KT 9999 BKN028 16/14 Q1010 NOSIG
  • 031830Z 36008KT 9999 FEW012 BKN033 16/14 Q1010 NOSIG
  • 031800Z 36010KT 9999 FEW012 BKN042 16/14 Q1010 NOSIG
  • 031730Z 36010KT 9999 FEW012 BKN047 16/14 Q1009 NOSIG
  • 031700Z 35008KT 9999 FEW012 16/14 Q1010 NOSIG

TAF TAF LKPR
Valid from the 03 at 18:00 until the 05 at 00:00 UTC


031700Z 0318/0500 35010KT 9999 SCT013 BKN036
BECMG 0321/0323 36014G24KT 5000 -RA BR BKN010 OVC020
PROB30
TEMPO 0323/0408 3000 RA BR BKN005 OVC013
BECMG 0415/0418 32006KT 9999 -SHRA SCT026
BECMG 0421/0500 2500 BR SCT005



MET'MAP, your aeronautical weather chart ! - Copyright ORBIFLY December 2007 - Disclaimer

ORBIFLY MET'MAP TEAM :

Programming & Development : Alexandra Zaïnal
Concept & original design : Baudouin d'Aumeries
Assistance for programming : Marc-Olivier Méhu
Technical & hardware support : Manuel Goepfert

Contact : metmap@orbifly.com




SOURCES & CREDITS :

   NOAA